2023/01/27 14:30 VVNB 271430Z 06004KT 360V080 9000 NSC 15/05 Q1025 NOSIG
2023/01/27 14:30 VVDN 271430Z 32008KT 4000 -RA BR FEW005 SCT010 BKN040 18/18 Q1020 NOSIG
2023/01/27 14:30 VVTS 271430Z VRB03KT 9999 FEW017 SCT050 26/24 Q1010 NOSIG
2023/01/27 14:30 VVPB 271430Z 33008KT 2000 RA BR SCT006 SCT013 BKN040 18/17 Q1022 NOSIG

Powered by MinhViet JSC.